Time;durP1;ratioP1;P1;durP2;ratioP2;P2;SDS_P1;SDS_P2;PMS_P1;PMS_P2;Temp;Humidity;BMP_temperature;BMP_pressure;BME280_temperature;BME280_humidity;BME280_pressure;Samples;Min_cycle;Max_cycle;Signal;HPM_P1;HPM_P2
2022/08/10 00:02:43;;;;;;;4.25;1.88;;;24.20;78.00;;;;;;5053089;28;20060;-59
2022/08/10 00:05:08;;;;;;;2.25;1.80;;;24.20;77.90;;;;;;5053138;28;20025;-59
2022/08/10 00:07:34;;;;;;;2.42;1.90;;;24.10;78.80;;;;;;5053014;28;20033;-59
2022/08/10 00:10:00;;;;;;;3.15;1.70;;;24.10;78.10;;;;;;5053263;28;20024;-59
2022/08/10 00:12:26;;;;;;;2.42;1.80;;;24.00;78.40;;;;;;5052795;28;20028;-58
2022/08/10 00:14:51;;;;;;;2.38;1.73;;;24.00;78.20;;;;;;5053039;28;20128;-59
2022/08/10 00:17:17;;;;;;;4.05;1.80;;;24.00;78.50;;;;;;5052518;28;20029;-59
2022/08/10 00:19:43;;;;;;;2.67;1.70;;;23.90;78.50;;;;;;5052772;28;20169;-59
2022/08/10 00:22:10;;;;;;;3.03;1.70;;;23.90;77.80;;;;;;5052768;28;20378;-59
2022/08/10 00:24:36;;;;;;;3.38;1.80;;;23.90;78.00;;;;;;5052721;28;20021;-59
2022/08/10 00:27:02;;;;;;;2.85;1.77;;;23.80;78.30;;;;;;5052731;28;20021;-59
2022/08/10 00:29:28;;;;;;;5.03;1.80;;;23.80;77.80;;;;;;5051882;28;20032;-59
2022/08/10 00:31:54;;;;;;;4.72;1.80;;;23.80;77.90;;;;;;5052254;28;20449;-59
2022/08/10 00:34:19;;;;;;;4.43;1.65;;;23.80;77.90;;;;;;5052606;28;20029;-59
2022/08/10 00:36:45;;;;;;;8.35;1.98;;;23.80;78.00;;;;;;5052680;28;20527;-59
2022/08/10 00:39:11;;;;;;;2.17;1.63;;;23.90;77.20;;;;;;5052554;28;20021;-59
2022/08/10 00:41:37;;;;;;;2.78;1.60;;;23.80;78.40;;;;;;5052267;28;20063;-59
2022/08/10 00:44:02;;;;;;;2.13;1.50;;;23.80;78.40;;;;;;5052362;28;20080;-59
2022/08/10 00:46:29;;;;;;;2.60;1.60;;;23.70;78.20;;;;;;5052504;28;20430;-59
2022/08/10 00:48:55;;;;;;;2.80;1.90;;;23.70;78.00;;;;;;5052374;28;20146;-59
2022/08/10 00:51:21;;;;;;;4.05;2.00;;;23.70;77.80;;;;;;5052882;28;20052;-59
2022/08/10 00:53:47;;;;;;;4.32;1.80;;;23.70;77.90;;;;;;5052281;28;20443;-59
2022/08/10 00:56:12;;;;;;;1.58;1.48;;;23.70;77.40;;;;;;5051964;28;20033;-59
2022/08/10 00:58:39;;;;;;;2.00;1.55;;;23.70;77.50;;;;;;5052210;28;20021;-59
2022/08/10 01:01:05;;;;;;;3.30;1.75;;;23.80;76.90;;;;;;5051858;28;20490;-59
2022/08/10 01:03:30;;;;;;;5.05;1.75;;;23.80;76.80;;;;;;5052461;28;20020;-59
2022/08/10 01:06:28;;;;;;;1.67;1.40;;;23.70;76.80;;;;;;5052185;28;20375;-59
2022/08/10 01:08:58;;;;;;;2.72;1.50;;;23.70;76.60;;;;;;5051780;28;20136;-60
2022/08/10 01:11:42;;;;;;;3.40;1.83;;;23.80;76.50;;;;;;5051971;28;20033;-60
2022/08/10 01:14:11;;;;;;;5.75;1.50;;;23.80;76.60;;;;;;5051594;28;20493;-57
2022/08/10 01:16:57;;;;;;;3.60;1.42;;;23.80;76.50;;;;;;5051832;28;20040;-57
2022/08/10 01:19:35;;;;;;;2.70;1.70;;;23.80;76.40;;;;;;5052023;28;20041;-57
2022/08/10 01:22:37;;;;;;;1.63;1.52;;;23.80;76.30;;;;;;5051499;28;20056;-58
2022/08/10 01:25:28;;;;;;;2.40;1.60;;;23.80;76.40;;;;;;5051733;28;20021;-59
2022/08/10 01:28:19;;;;;;;3.60;1.55;;;23.80;76.60;;;;;;5053383;28;20036;-59
2022/08/10 01:30:47;;;;;;;3.78;1.50;;;23.80;76.30;;;;;;5054969;28;20079;-58
2022/08/10 01:33:28;;;;;;;2.33;1.33;;;23.80;76.10;;;;;;5055966;28;20025;-59
2022/08/10 01:36:13;;;;;;;2.63;1.58;;;23.80;76.00;;;;;;5056124;28;20495;-59
2022/08/10 01:38:44;;;;;;;3.25;1.60;;;23.90;76.20;;;;;;5055640;28;20140;-59
2022/08/10 01:41:29;;;;;;;7.38;1.50;;;23.80;76.30;;;;;;5056186;28;20024;-59
2022/08/10 01:44:04;;;;;;;1.88;1.45;;;23.80;76.40;;;;;;5055561;28;20443;-59
2022/08/10 01:46:32;;;;;;;3.22;1.50;;;23.70;76.80;;;;;;5055783;28;20473;-59
2022/08/10 01:48:59;;;;;;;1.92;1.40;;;23.70;76.40;;;;;;5055726;28;20047;-59
2022/08/10 01:51:42;;;;;;;4.32;1.80;;;23.70;76.20;;;;;;5055659;28;20493;-59
2022/08/10 01:54:14;;;;;;;2.42;1.63;;;23.70;77.00;;;;;;5056016;28;20112;-59
2022/08/10 01:56:44;;;;;;;4.45;1.48;;;23.70;76.80;;;;;;5055548;28;20118;-59
2022/08/10 01:59:18;;;;;;;2.22;1.50;;;23.70;76.40;;;;;;5055530;28;20052;-59
2022/08/10 02:01:50;;;;;;;4.55;1.65;;;23.70;76.20;;;;;;5055456;28;20063;-59
2022/08/10 02:04:18;;;;;;;3.00;1.65;;;23.70;76.40;;;;;;5055485;28;20013;-59
2022/08/10 02:06:49;;;;;;;5.53;1.60;;;23.60;76.40;;;;;;5055227;28;20482;-59
2022/08/10 02:09:39;;;;;;;4.70;1.63;;;23.60;76.70;;;;;;5055258;28;20490;-59
2022/08/10 02:12:08;;;;;;;2.47;1.60;;;23.60;76.60;;;;;;5055064;28;20039;-59
2022/08/10 02:14:58;;;;;;;1.75;1.40;;;23.50;76.70;;;;;;5055381;28;20021;-59
2022/08/10 02:17:50;;;;;;;3.22;1.50;;;23.40;76.40;;;;;;5055135;28;20035;-59
2022/08/10 02:20:22;;;;;;;3.00;1.55;;;23.40;77.10;;;;;;5055069;28;20029;-59
2022/08/10 02:22:55;;;;;;;3.22;1.70;;;23.30;77.90;;;;;;5054901;28;20079;-59
2022/08/10 02:25:23;;;;;;;3.97;1.70;;;23.30;77.50;;;;;;5054938;28;20025;-59
2022/08/10 02:27:50;;;;;;;1.70;1.60;;;23.30;78.10;;;;;;5054708;28;20123;-59
2022/08/10 02:30:16;;;;;;;3.35;1.70;;;23.20;77.90;;;;;;5053989;28;20493;-59
2022/08/10 02:32:43;;;;;;;4.85;1.60;;;23.20;77.80;;;;;;5053680;28;20266;-59
2022/08/10 02:35:11;;;;;;;1.80;1.60;;;23.20;77.90;;;;;;5054769;28;20493;-59
2022/08/10 02:37:40;;;;;;;4.25;1.63;;;23.20;77.30;;;;;;5054758;28;20068;-59
2022/08/10 02:40:07;;;;;;;2.15;1.85;;;23.20;77.60;;;;;;5054740;28;20041;-59
2022/08/10 02:42:49;;;;;;;3.55;1.58;;;23.20;77.60;;;;;;5054441;28;20056;-59
2022/08/10 02:45:30;;;;;;;3.05;1.42;;;23.20;77.60;;;;;;5054633;28;20103;-59
2022/08/10 02:48:04;;;;;;;2.53;1.45;;;23.20;77.60;;;;;;5037183;28;20021;-59
2022/08/10 02:50:37;;;;;;;4.03;1.45;;;23.20;78.40;;;;;;5054693;28;20049;-59
2022/08/10 02:53:06;;;;;;;3.53;1.60;;;23.20;77.80;;;;;;5054407;28;20063;-59
2022/08/10 02:55:44;;;;;;;3.63;1.30;;;23.10;77.90;;;;;;5054054;28;20029;-59
2022/08/10 02:58:15;;;;;;;2.70;1.70;;;23.10;77.90;;;;;;5054408;28;20033;-59
2022/08/10 03:00:47;;;;;;;4.03;1.30;;;23.00;78.00;;;;;;5054739;28;20025;-59
2022/08/10 03:03:25;;;;;;;6.47;1.80;;;23.00;78.20;;;;;;5054623;28;20102;-60
2022/08/10 03:05:59;;;;;;;3.17;1.40;;;23.00;78.20;;;;;;5054217;28;20029;-59
2022/08/10 03:08:30;;;;;;;2.85;1.60;;;23.00;78.30;;;;;;5054085;28;20032;-59
2022/08/10 03:10:59;;;;;;;5.57;1.63;;;22.90;78.30;;;;;;5054219;28;20031;-59
2022/08/10 03:13:27;;;;;;;2.05;1.50;;;22.90;78.30;;;;;;5054401;28;20056;-59
2022/08/10 03:15:54;;;;;;;1.50;1.40;;;22.90;78.20;;;;;;5052934;28;20409;-59
2022/08/10 03:18:23;;;;;;;3.80;1.60;;;22.90;78.50;;;;;;5054059;28;20014;-59
2022/08/10 03:20:50;;;;;;;3.92;1.40;;;22.90;78.40;;;;;;5053660;28;20021;-59
2022/08/10 03:23:19;;;;;;;2.55;1.60;;;22.80;78.50;;;;;;5054423;28;20049;-59
2022/08/10 03:25:47;;;;;;;3.50;1.77;;;22.80;78.30;;;;;;5053596;28;20037;-59
2022/08/10 03:28:16;;;;;;;1.65;1.40;;;22.80;78.70;;;;;;5053895;28;20458;-59
2022/08/10 03:30:42;;;;;;;2.33;1.55;;;22.80;78.90;;;;;;5054162;28;20104;-59
2022/08/10 03:33:09;;;;;;;2.97;1.50;;;22.70;78.80;;;;;;5052556;28;20033;-60
2022/08/10 03:35:36;;;;;;;2.45;1.70;;;22.70;79.00;;;;;;5053753;28;20083;-60
2022/08/10 03:38:02;;;;;;;3.72;1.58;;;22.70;79.20;;;;;;5052339;28;20544;-60
2022/08/10 03:40:33;;;;;;;2.70;1.52;;;22.60;79.60;;;;;;5053179;28;20398;-59
2022/08/10 03:43:00;;;;;;;5.38;1.50;;;22.50;80.40;;;;;;5053392;28;20433;-59
2022/08/10 03:45:27;;;;;;;1.65;1.35;;;22.50;79.70;;;;;;5053627;28;20504;-60
2022/08/10 03:47:54;;;;;;;2.30;1.60;;;22.50;79.70;;;;;;5053845;28;20064;-59
2022/08/10 03:50:21;;;;;;;3.72;1.65;;;22.40;80.10;;;;;;5052512;28;20522;-59
2022/08/10 03:52:47;;;;;;;3.72;1.63;;;22.40;80.50;;;;;;5053003;28;20108;-59
2022/08/10 03:55:13;;;;;;;1.98;1.55;;;22.30;80.80;;;;;;5053229;28;20023;-60
2022/08/10 03:57:39;;;;;;;4.30;1.73;;;22.20;81.50;;;;;;5053345;28;20067;-59
2022/08/10 04:00:07;;;;;;;2.35;1.52;;;22.30;80.60;;;;;;5053813;28;20505;-59
2022/08/10 04:02:33;;;;;;;2.35;1.70;;;22.10;80.70;;;;;;5053077;28;20041;-60
2022/08/10 04:04:59;;;;;;;4.43;1.50;;;22.10;80.70;;;;;;5052933;28;20021;-60
2022/08/10 04:07:25;;;;;;;3.17;1.70;;;22.00;82.10;;;;;;5052467;28;20029;-60
2022/08/10 04:09:52;;;;;;;2.67;1.40;;;22.00;82.00;;;;;;5053112;28;20498;-60
2022/08/10 04:12:18;;;;;;;4.00;1.45;;;22.00;81.90;;;;;;5053341;28;20025;-59
2022/08/10 04:14:44;;;;;;;3.92;1.73;;;22.00;81.80;;;;;;5053035;28;20028;-59
2022/08/10 04:17:10;;;;;;;1.95;1.55;;;21.90;82.10;;;;;;5053011;28;20037;-60
2022/08/10 04:19:45;;;;;;;3.47;1.60;;;21.90;82.30;;;;;;5052781;28;20021;-60
2022/08/10 04:22:19;;;;;;;4.47;1.52;;;21.80;83.30;;;;;;5052451;28;20417;-60
2022/08/10 04:24:48;;;;;;;1.95;1.40;;;21.80;82.60;;;;;;5053190;28;20029;-59
2022/08/10 04:27:14;;;;;;;3.72;1.50;;;21.70;82.20;;;;;;5052908;28;20433;-60
2022/08/10 04:29:41;;;;;;;6.72;1.60;;;21.70;82.50;;;;;;5052608;28;20021;-60
2022/08/10 04:32:09;;;;;;;3.88;1.58;;;21.70;82.50;;;;;;5052944;28;20067;-59
2022/08/10 04:34:35;;;;;;;4.20;1.98;;;21.80;82.00;;;;;;5052520;28;20032;-59
2022/08/10 04:37:05;;;;;;;2.80;1.60;;;21.70;82.70;;;;;;5052196;28;20047;-59
2022/08/10 04:39:31;;;;;;;1.67;1.58;;;21.70;82.40;;;;;;5052554;28;20035;-59
2022/08/10 04:41:57;;;;;;;3.97;1.92;;;21.70;82.60;;;;;;5052571;28;20111;-59
2022/08/10 04:44:23;;;;;;;4.25;1.60;;;21.60;82.40;;;;;;5052260;28;20048;-60
2022/08/10 04:46:51;;;;;;;2.45;1.60;;;21.60;82.00;;;;;;5052346;28;20033;-59
2022/08/10 04:49:17;;;;;;;2.75;1.50;;;21.60;81.90;;;;;;5052280;28;20025;-59
2022/08/10 04:51:43;;;;;;;5.10;1.90;;;21.50;82.40;;;;;;5051979;28;20155;-60
2022/08/10 04:54:08;;;;;;;3.25;1.60;;;21.50;82.70;;;;;;5052274;28;20478;-59
2022/08/10 04:56:37;;;;;;;2.25;1.70;;;21.50;82.90;;;;;;5052088;28;20056;-59
2022/08/10 04:59:04;;;;;;;4.30;1.65;;;21.50;82.60;;;;;;5052048;28;20024;-59
2022/08/10 05:01:31;;;;;;;3.95;1.50;;;21.50;82.40;;;;;;5051471;28;20371;-59
2022/08/10 05:03:57;;;;;;;3.67;1.70;;;21.50;82.70;;;;;;5051768;28;20025;-59
2022/08/10 05:06:22;;;;;;;4.25;2.08;;;21.50;82.50;;;;;;5051566;28;20043;-59
2022/08/10 05:08:48;;;;;;;3.00;1.52;;;21.50;82.60;;;;;;5052481;28;20482;-60
2022/08/10 05:11:14;;;;;;;5.60;1.73;;;21.50;82.70;;;;;;5050185;28;20074;-59
2022/08/10 05:13:39;;;;;;;4.75;1.58;;;21.50;82.50;;;;;;5052400;28;20020;-59
2022/08/10 05:16:05;;;;;;;4.25;1.60;;;21.50;82.40;;;;;;5051845;28;20037;-59
2022/08/10 05:18:31;;;;;;;2.08;1.50;;;21.50;82.50;;;;;;5051927;28;20560;-59
2022/08/10 05:20:57;;;;;;;6.03;1.70;;;21.50;82.50;;;;;;5051862;28;20425;-59
2022/08/10 05:23:22;;;;;;;2.13;1.70;;;21.50;82.50;;;;;;5051805;28;20059;-60
2022/08/10 05:25:48;;;;;;;2.80;1.60;;;21.50;82.50;;;;;;5051813;28;20087;-60
2022/08/10 05:28:13;;;;;;;2.53;1.70;;;21.50;82.30;;;;;;5051776;28;20628;-59
2022/08/10 05:30:39;;;;;;;5.38;1.65;;;21.50;83.10;;;;;;5052048;28;20079;-59
2022/08/10 05:33:05;;;;;;;5.45;1.60;;;21.50;82.60;;;;;;5051656;28;20104;-59
2022/08/10 05:35:32;;;;;;;3.53;1.67;;;21.50;82.50;;;;;;5051246;28;20035;-59
2022/08/10 05:37:59;;;;;;;4.63;1.60;;;21.60;82.80;;;;;;5051655;28;20095;-60
2022/08/10 05:40:26;;;;;;;4.07;1.70;;;21.60;82.70;;;;;;5052007;28;20060;-59
2022/08/10 05:42:52;;;;;;;2.53;1.70;;;21.60;82.80;;;;;;5051397;28;20401;-59
2022/08/10 05:45:20;;;;;;;3.35;1.70;;;21.60;82.50;;;;;;5051598;28;20017;-59
2022/08/10 05:47:47;;;;;;;2.53;1.60;;;21.60;82.60;;;;;;5052051;28;20013;-59
2022/08/10 05:50:15;;;;;;;4.82;1.80;;;21.70;82.60;;;;;;5051038;28;20036;-60
2022/08/10 05:52:42;;;;;;;5.82;1.70;;;21.70;82.60;;;;;;5051548;28;20025;-60
2022/08/10 05:55:08;;;;;;;3.92;1.85;;;21.70;83.00;;;;;;5051391;28;20437;-60
2022/08/10 05:57:35;;;;;;;6.53;1.88;;;21.70;83.10;;;;;;5051422;28;20017;-60
2022/08/10 06:00:05;;;;;;;3.58;1.75;;;21.70;83.20;;;;;;5051486;28;20059;-60
2022/08/10 06:02:40;;;;;;;6.90;1.80;;;21.80;83.30;;;;;;5051723;28;20040;-59
2022/08/10 06:05:08;;;;;;;4.50;1.80;;;21.80;83.40;;;;;;5051032;28;20163;-60
2022/08/10 06:07:38;;;;;;;3.03;1.60;;;21.80;83.30;;;;;;5051281;28;20025;-60
2022/08/10 06:10:05;;;;;;;3.85;1.75;;;21.90;83.10;;;;;;5051446;28;20474;-60
2022/08/10 06:12:33;;;;;;;7.30;1.80;;;21.90;83.00;;;;;;5051781;28;20032;-59
2022/08/10 06:15:00;;;;;;;3.65;1.60;;;22.00;83.10;;;;;;5054434;28;20025;-59
2022/08/10 06:17:28;;;;;;;6.40;1.70;;;22.10;82.60;;;;;;5054975;28;20465;-60
2022/08/10 06:19:56;;;;;;;3.72;1.52;;;22.20;83.10;;;;;;5055052;28;20049;-60
2022/08/10 06:22:23;;;;;;;5.28;1.50;;;22.40;82.40;;;;;;5054895;28;20363;-60
2022/08/10 06:24:49;;;;;;;3.13;1.80;;;22.60;82.30;;;;;;5054614;28;20035;-60
2022/08/10 06:27:15;;;;;;;5.25;1.70;;;22.90;82.40;;;;;;5055250;28;20044;-59
2022/08/10 06:29:44;;;;;;;2.38;1.55;;;23.20;81.70;;;;;;5054634;28;20029;-60
2022/08/10 06:32:11;;;;;;;3.72;1.83;;;23.50;81.10;;;;;;5054437;28;20025;-59
2022/08/10 06:34:40;;;;;;;2.95;1.63;;;23.80;80.60;;;;;;5054465;28;20049;-60
2022/08/10 06:37:07;;;;;;;5.68;2.00;;;24.10;79.40;;;;;;5054885;28;20497;-59
2022/08/10 06:39:34;;;;;;;2.30;1.75;;;24.60;79.10;;;;;;5054411;28;20543;-60
2022/08/10 06:42:35;;;;;;;2.20;1.70;;;25.00;78.50;;;;;;5054442;28;20050;-60
2022/08/10 06:45:10;;;;;;;7.25;1.77;;;25.30;76.90;;;;;;5049168;28;20067;-60
2022/08/10 06:47:43;;;;;;;4.65;1.77;;;25.90;76.00;;;;;;5054074;28;20052;-59
2022/08/10 06:50:19;;;;;;;5.67;1.60;;;26.40;75.20;;;;;;5054697;28;20421;-59
2022/08/10 06:52:48;;;;;;;2.17;1.50;;;26.70;74.80;;;;;;5054405;28;20044;-60
2022/08/10 06:55:15;;;;;;;3.45;1.70;;;27.10;74.00;;;;;;5054273;28;20422;-59
2022/08/10 06:57:42;;;;;;;4.88;1.80;;;27.60;73.30;;;;;;5054060;28;20053;-60
2022/08/10 07:00:10;;;;;;;2.90;1.55;;;28.00;72.60;;;;;;5054005;28;20024;-59
2022/08/10 07:02:46;;;;;;;6.63;1.70;;;28.30;71.30;;;;;;5053792;28;20029;-59
2022/08/10 07:05:19;;;;;;;3.38;1.77;;;28.50;70.60;;;;;;5054067;28;20444;-59
2022/08/10 07:07:46;;;;;;;2.42;1.40;;;28.90;70.80;;;;;;5053921;28;20028;-59
2022/08/10 07:10:17;;;;;;;7.53;1.70;;;29.10;69.30;;;;;;5053924;28;20029;-59
2022/08/10 07:12:45;;;;;;;3.30;1.52;;;29.30;69.60;;;;;;5053844;28;20425;-59
2022/08/10 07:15:12;;;;;;;4.55;1.45;;;29.40;69.80;;;;;;5054026;28;20106;-59
2022/08/10 07:17:39;;;;;;;2.60;1.40;;;29.60;69.20;;;;;;5053925;28;20029;-60
2022/08/10 07:20:09;;;;;;;3.13;1.50;;;29.80;68.50;;;;;;5054018;28;20075;-59
2022/08/10 07:22:37;;;;;;;2.50;1.50;;;30.10;68.20;;;;;;5053684;28;20033;-59
2022/08/10 07:25:05;;;;;;;3.85;1.55;;;30.20;66.90;;;;;;5053169;28;20044;-59
2022/08/10 07:27:32;;;;;;;3.20;1.50;;;30.30;67.40;;;;;;5053619;28;20440;-60
2022/08/10 07:29:59;;;;;;;3.17;1.48;;;30.60;67.40;;;;;;5053755;28;20025;-59
2022/08/10 07:32:25;;;;;;;3.20;1.40;;;30.80;66.30;;;;;;5053027;28;20039;-59
2022/08/10 07:34:53;;;;;;;2.90;1.60;;;31.00;66.30;;;;;;5053162;28;20401;-59
2022/08/10 07:37:21;;;;;;;2.30;1.45;;;31.10;66.70;;;;;;5053754;28;20109;-60
2022/08/10 07:39:50;;;;;;;5.07;1.50;;;31.50;66.30;;;;;;5053342;28;20025;-59
2022/08/10 07:42:19;;;;;;;2.90;1.50;;;31.50;65.00;;;;;;5053174;28;20033;-59
2022/08/10 07:44:47;;;;;;;3.25;1.50;;;31.80;64.10;;;;;;5052692;28;20061;-61
2022/08/10 07:47:33;;;;;;;2.50;1.45;;;32.00;64.10;;;;;;5053698;28;20394;-59
2022/08/10 07:50:04;;;;;;;3.35;1.35;;;32.00;63.90;;;;;;5053424;28;20051;-59
2022/08/10 07:52:33;;;;;;;2.90;1.45;;;32.40;63.50;;;;;;5053231;28;20017;-60
2022/08/10 07:55:01;;;;;;;3.95;1.40;;;32.70;63.60;;;;;;5035259;28;20063;-59
2022/08/10 07:57:29;;;;;;;2.35;1.45;;;33.10;63.30;;;;;;5053088;28;20116;-60
2022/08/10 07:59:58;;;;;;;4.07;1.45;;;33.50;62.60;;;;;;5052831;28;20437;-59
2022/08/10 08:02:54;;;;;;;3.97;1.50;;;33.50;61.50;;;;;;5053269;28;20036;-59
2022/08/10 08:05:23;;;;;;;5.15;1.30;;;33.70;60.80;;;;;;5053377;28;20010;-59
2022/08/10 08:07:50;;;;;;;3.85;1.50;;;34.00;60.50;;;;;;5052942;28;20025;-59
2022/08/10 08:10:17;;;;;;;5.82;1.58;;;34.50;61.00;;;;;;5052556;28;20035;-59
2022/08/10 08:12:44;;;;;;;3.40;1.60;;;34.50;59.80;;;;;;5052870;28;20555;-59
2022/08/10 08:15:13;;;;;;;1.85;1.50;;;34.60;60.20;;;;;;5052694;28;20035;-60
2022/08/10 08:17:40;;;;;;;4.05;1.50;;;34.60;60.00;;;;;;5052913;28;20124;-60
2022/08/10 08:20:08;;;;;;;2.70;1.60;;;34.90;59.40;;;;;;5052654;28;20032;-60
2022/08/10 08:22:36;;;;;;;3.53;1.50;;;35.10;59.40;;;;;;5052574;28;20119;-59
2022/08/10 08:25:02;;;;;;;4.18;1.38;;;35.30;59.50;;;;;;5051213;28;20389;-60
2022/08/10 08:27:30;;;;;;;5.03;1.45;;;35.60;59.30;;;;;;5052804;28;20513;-60
2022/08/10 08:29:56;;;;;;;3.28;1.45;;;35.70;58.40;;;;;;5052298;28;20385;-60
2022/08/10 08:32:26;;;;;;;3.20;1.45;;;35.70;58.40;;;;;;5052598;28;20032;-59
2022/08/10 08:34:58;;;;;;;2.90;1.42;;;35.70;57.80;;;;;;5052386;28;20167;-60
2022/08/10 08:37:27;;;;;;;8.88;1.55;;;35.80;57.70;;;;;;5052403;28;20033;-57
2022/08/10 08:39:53;;;;;;;3.58;1.42;;;36.20;57.70;;;;;;5052165;28;20111;-57
2022/08/10 08:42:34;;;;;;;3.13;1.45;;;36.50;58.00;;;;;;5052308;28;20154;-57
2022/08/10 08:45:54;;;;;;;3.40;1.50;;;36.80;57.50;;;;;;5051762;28;20041;-57
2022/08/10 08:48:29;;;;;;;4.55;1.65;;;36.80;56.70;;;;;;5030585;28;20398;-57
2022/08/10 08:51:06;;;;;;;3.72;1.50;;;36.90;57.70;;;;;;5029730;28;20692;-56
2022/08/10 08:54:09;;;;;;;5.55;1.70;;;37.10;57.10;;;;;;5030172;28;20021;-57
2022/08/10 08:56:53;;;;;;;2.43;1.40;;;37.10;57.00;;;;;;5030195;28;20425;-57
2022/08/10 08:59:46;;;;;;;5.82;1.52;;;37.20;56.50;;;;;;5029770;28;20045;-57
2022/08/10 09:02:42;;;;;;;1.98;1.40;;;37.70;56.00;;;;;;5023174;28;20046;-56
2022/08/10 09:05:12;;;;;;;4.10;1.52;;;37.60;54.60;;;;;;5029997;28;20112;-57
2022/08/10 09:07:57;;;;;;;3.38;1.42;;;37.70;53.50;;;;;;5030217;28;20473;-57
2022/08/10 09:11:03;;;;;;;3.20;1.40;;;38.00;53.80;;;;;;5029818;28;20553;-57
2022/08/10 09:13:45;;;;;;;5.80;1.55;;;37.90;54.20;;;;;;5029632;28;20080;-57
2022/08/10 09:16:13;;;;;;;4.28;1.40;;;37.90;54.30;;;;;;5029939;28;20049;-57
2022/08/10 09:19:03;;;;;;;4.47;1.40;;;38.10;52.90;;;;;;5013344;28;20026;-58
2022/08/10 09:21:42;;;;;;;3.17;1.30;;;38.20;52.90;;;;;;5035857;28;20171;-57
2022/08/10 09:24:39;;;;;;;3.28;1.40;;;38.00;53.20;;;;;;5051819;28;20026;-57
2022/08/10 09:27:20;;;;;;;5.47;1.63;;;37.90;53.70;;;;;;5029312;28;20414;-58
2022/08/10 09:30:00;;;;;;;2.38;1.65;;;38.20;53.50;;;;;;5029795;28;20029;-57
2022/08/10 09:32:32;;;;;;;4.18;1.38;;;38.30;53.20;;;;;;5029870;28;20037;-57
2022/08/10 09:35:11;;;;;;;2.53;1.50;;;38.00;54.30;;;;;;5029601;28;20030;-58
2022/08/10 09:37:42;;;;;;;3.17;1.30;;;38.20;54.80;;;;;;5029751;28;20045;-58
2022/08/10 09:40:29;;;;;;;3.17;1.30;;;38.00;53.30;;;;;;5030017;28;20057;-58
2022/08/10 09:43:13;;;;;;;2.65;1.35;;;38.10;53.20;;;;;;5028972;28;20053;-58
2022/08/10 09:45:57;;;;;;;5.95;1.38;;;38.20;53.70;;;;;;5029454;28;20486;-58
2022/08/10 09:48:36;;;;;;;4.88;1.38;;;38.30;53.00;;;;;;5030701;28;20113;-57
2022/08/10 09:51:10;;;;;;;1.60;1.40;;;38.20;52.60;;;;;;5033457;28;20026;-57
2022/08/10 09:53:59;;;;;;;4.18;1.30;;;38.30;51.50;;;;;;5033282;28;20491;-57
2022/08/10 09:56:57;;;;;;;4.38;1.42;;;38.30;52.40;;;;;;5032757;28;20042;-57
2022/08/10 09:59:29;;;;;;;2.13;1.30;;;38.40;52.30;;;;;;5025565;28;20414;-57
2022/08/10 10:02:16;;;;;;;4.47;1.42;;;38.40;51.80;;;;;;5033765;28;20475;-58
2022/08/10 10:05:02;;;;;;;5.35;1.63;;;38.30;51.60;;;;;;5052683;28;20029;-56
2022/08/10 10:07:28;;;;;;;5.65;1.50;;;38.20;51.40;;;;;;5055203;28;20111;-58
2022/08/10 10:10:08;;;;;;;4.85;1.20;;;38.10;50.40;;;;;;5054923;28;20131;-59
2022/08/10 10:12:39;;;;;;;3.05;1.73;;;37.90;50.80;;;;;;5055139;28;20029;-59
2022/08/10 10:15:34;;;;;;;3.15;1.48;;;38.10;50.90;;;;;;5055187;28;20512;-59
2022/08/10 10:18:09;;;;;;;4.30;1.38;;;38.10;52.50;;;;;;5055473;28;20121;-59
2022/08/10 10:20:44;;;;;;;3.30;1.30;;;38.10;51.50;;;;;;5054961;28;20098;-59
2022/08/10 10:23:28;;;;;;;3.63;1.40;;;38.30;52.70;;;;;;5055026;28;20053;-59
2022/08/10 10:26:04;;;;;;;3.40;1.35;;;38.40;51.10;;;;;;5055088;28;20040;-59
2022/08/10 10:29:18;;;;;;;2.90;1.30;;;38.40;50.30;;;;;;5055091;28;20048;-59
2022/08/10 10:32:00;;;;;;;;;;;38.30;50.70;;;;;;5033151;28;20033;-59
2022/08/10 10:34:44;;;;;;;2.83;1.23;;;38.20;50.40;;;;;;5016144;28;19935;-59
2022/08/10 10:37:11;;;;;;;2.72;1.33;;;38.00;50.50;;;;;;5016192;28;20379;-59
2022/08/10 10:39:42;;;;;;;3.45;1.27;;;37.70;50.60;;;;;;5032096;28;20040;-59
2022/08/10 10:42:30;;;;;;;3.03;1.50;;;37.60;50.80;;;;;;5032470;28;20033;-59
2022/08/10 10:45:22;;;;;;;2.63;1.20;;;37.40;51.00;;;;;;5015871;28;20627;-59
2022/08/10 10:48:03;;;;;;;1.80;1.20;;;37.80;52.10;;;;;;4993106;28;20066;-59
2022/08/10 10:51:16;;;;;;;2.05;1.25;;;37.70;50.90;;;;;;4993363;28;20526;-60
2022/08/10 10:54:14;;;;;;;2.33;1.40;;;37.30;51.40;;;;;;4973385;28;20031;-60
2022/08/10 10:56:58;;;;;;;3.53;1.17;;;37.30;50.20;;;;;;4972590;28;20049;-60
2022/08/10 10:59:36;;;;;;;2.33;1.40;;;37.20;50.10;;;;;;4972638;28;20108;-60
2022/08/10 11:02:46;;;;;;;1.98;1.40;;;37.30;50.00;;;;;;4973069;28;20027;-59
2022/08/10 11:05:28;;;;;;;3.22;1.20;;;37.40;50.30;;;;;;4964647;28;20067;-59
2022/08/10 11:08:09;;;;;;;1.30;1.20;;;37.10;50.40;;;;;;4953733;29;20035;-59
2022/08/10 11:10:41;;;;;;;3.20;1.20;;;37.00;50.00;;;;;;4953938;28;20028;-59
2022/08/10 11:13:16;;;;;;;;;;;37.10;49.60;;;;;;4954469;29;20035;-59
2022/08/10 11:15:53;;;;;;;2.03;1.23;;;37.20;50.50;;;;;;4953954;28;19917;-59
2022/08/10 11:18:54;;;;;;;1.80;1.17;;;37.50;49.20;;;;;;4953791;29;20509;-59
2022/08/10 11:21:42;;;;;;;3.97;1.10;;;37.20;49.50;;;;;;4954167;28;20054;-60
2022/08/10 11:24:45;;;;;;;1.63;1.13;;;37.20;49.20;;;;;;4964875;28;20034;-60
2022/08/10 11:27:36;;;;;;;1.48;1.20;;;37.00;49.70;;;;;;4992844;28;20054;-59
2022/08/10 11:30:06;;;;;;;1.55;1.38;;;37.20;49.90;;;;;;5004412;28;20394;-59
2022/08/10 11:33:05;;;;;;;5.30;2.20;;;37.20;49.60;;;;;;5034010;28;20048;-60
2022/08/10 11:35:43;;;;;;;3.58;2.25;;;37.00;49.10;;;;;;5033716;28;20030;-59
2022/08/10 11:38:15;;;;;;;3.72;2.30;;;37.20;49.70;;;;;;5037064;28;20445;-59
2022/08/10 11:40:57;;;;;;;4.72;2.17;;;36.90;48.90;;;;;;5053643;28;20198;-59
2022/08/10 11:43:27;;;;;;;8.53;5.63;;;36.80;49.60;;;;;;5053988;28;20043;-59
2022/08/10 11:46:20;;;;;;;5.05;4.55;;;36.80;48.70;;;;;;5053422;28;20554;-60
2022/08/10 11:48:51;;;;;;;7.60;5.85;;;36.70;49.20;;;;;;5053350;28;20099;-59
2022/08/10 11:51:50;;;;;;;14.10;9.77;;;36.60;49.00;;;;;;5053085;28;20040;-59
2022/08/10 11:54:18;;;;;;;10.82;8.20;;;36.60;49.00;;;;;;5031144;28;20040;-59
2022/08/10 11:56:51;;;;;;;9.50;8.40;;;36.60;49.50;;;;;;5031150;28;20057;-60
2022/08/10 12:02:05;;;;;;;11.35;9.98;;;36.70;49.60;;;;;;5031252;28;19919;-59
2022/08/10 12:04:33;;;;;;;12.77;11.48;;;36.50;49.40;;;;;;5031551;28;20468;-59
2022/08/10 12:07:03;;;;;;;14.15;12.65;;;36.50;49.80;;;;;;5030694;28;20034;-59
2022/08/10 12:09:30;;;;;;;13.27;11.63;;;36.30;49.40;;;;;;5031042;28;20026;-60
2022/08/10 12:11:58;;;;;;;15.57;14.02;;;36.30;49.60;;;;;;5030440;28;20499;-59
2022/08/10 12:14:31;;;;;;;16.95;14.93;;;36.30;49.70;;;;;;5030990;28;20026;-59
2022/08/10 12:17:04;;;;;;;15.48;10.98;;;36.40;49.60;;;;;;5030616;28;20037;-60
2022/08/10 12:19:44;;;;;;;12.40;11.20;;;36.30;49.50;;;;;;5031275;28;20057;-59
2022/08/10 12:22:15;;;;;;;9.90;8.90;;;36.30;49.30;;;;;;5030479;28;20083;-60
2022/08/10 12:24:59;;;;;;;9.30;7.57;;;36.20;49.70;;;;;;5030720;28;20461;-59
2022/08/10 12:27:47;;;;;;;10.93;8.13;;;36.20;50.00;;;;;;5030716;28;20033;-59
2022/08/10 12:30:23;;;;;;;9.77;8.77;;;36.00;50.30;;;;;;5031398;28;20387;-59
2022/08/10 12:33:16;;;;;;;13.75;9.77;;;36.00;50.50;;;;;;5052543;28;20040;-60
2022/08/10 12:36:00;;;;;;;13.32;11.43;;;35.90;50.30;;;;;;5052200;28;20025;-60
2022/08/10 12:39:05;;;;;;;12.50;11.40;;;35.70;50.20;;;;;;5052402;28;20056;-60
2022/08/10 12:41:36;;;;;;;18.38;13.73;;;35.70;50.30;;;;;;5051390;28;20037;-60
2022/08/10 12:44:08;;;;;;;16.42;13.27;;;35.70;50.10;;;;;;5052882;28;20123;-59
2022/08/10 12:46:45;;;;;;;15.05;13.50;;;35.70;50.30;;;;;;5052435;28;20449;-60
2022/08/10 12:49:30;;;;;;;14.25;12.43;;;35.60;49.90;;;;;;5052531;28;20025;-60
2022/08/10 12:52:13;;;;;;;10.07;9.07;;;35.60;50.50;;;;;;5052530;28;20115;-60
2022/08/10 12:54:40;;;;;;;12.02;8.00;;;35.50;50.40;;;;;;5052574;28;20490;-59
2022/08/10 12:57:14;;;;;;;10.05;8.88;;;35.40;50.50;;;;;;5052318;28;20051;-59
2022/08/10 12:59:43;;;;;;;11.32;10.23;;;35.40;51.10;;;;;;5052128;28;20556;-60
2022/08/10 13:02:23;;;;;;;12.30;11.10;;;35.40;51.40;;;;;;5052237;28;20021;-60
2022/08/10 13:04:50;;;;;;;18.65;14.18;;;35.20;51.80;;;;;;5051810;28;20029;-60
2022/08/10 13:07:30;;;;;;;13.93;12.57;;;35.20;51.20;;;;;;5052600;28;20425;-60
2022/08/10 13:10:11;;;;;;;14.00;12.60;;;35.30;51.10;;;;;;5052198;28;20051;-60
2022/08/10 13:12:41;;;;;;;12.88;11.60;;;35.20;51.20;;;;;;5052221;28;20024;-60
2022/08/10 13:15:24;;;;;;;11.63;10.43;;;35.10;51.20;;;;;;5051953;28;20061;-60
2022/08/10 13:17:53;;;;;;;12.98;11.63;;;35.10;50.70;;;;;;5052045;28;20086;-60
2022/08/10 13:20:34;;;;;;;15.07;12.82;;;35.00;50.40;;;;;;5051824;28;20048;-60
2022/08/10 13:23:08;;;;;;;15.15;13.55;;;34.90;50.80;;;;;;5051105;28;20029;-60